createdAt,value
2023-04-22T00:02:00.032Z,100175.47
2023-04-22T00:05:03.915Z,100181.31
2023-04-22T00:08:06.933Z,100187.13
2023-04-22T00:11:10.110Z,100183.84
2023-04-22T00:14:12.969Z,100183.28
2023-04-22T00:17:15.792Z,100182.09
2023-04-22T00:20:21.598Z,100178.25
2023-04-22T00:23:24.316Z,100187.69
2023-04-22T00:26:27.275Z,100188.78
2023-04-22T00:29:30.343Z,100180.72
2023-04-22T00:32:33.272Z,100190.34
2023-04-22T00:35:36.048Z,100186.91
2023-04-22T00:38:41.745Z,100186.47
2023-04-22T00:41:44.425Z,100187.28
2023-04-22T00:44:48.147Z,100179.59
2023-04-22T00:47:51.024Z,100185.78
2023-04-22T00:50:53.730Z,100181.38
2023-04-22T00:53:57.892Z,100184.00
2023-04-22T00:57:01.089Z,100177.41
2023-04-22T01:00:05.675Z,100184.72
2023-04-22T01:03:10.311Z,100181.97
2023-04-22T01:06:13.416Z,100185.13
2023-04-22T01:09:16.279Z,100188.25
2023-04-22T01:12:19.159Z,100185.50
2023-04-22T01:15:21.930Z,100195.28
2023-04-22T01:18:25.322Z,100185.13
2023-04-22T01:21:28.356Z,100191.84
2023-04-22T01:24:30.949Z,100189.91
2023-04-22T01:27:34.228Z,100191.56
2023-04-22T01:30:36.843Z,100191.03
2023-04-22T01:33:39.677Z,100193.34
2023-04-22T01:36:42.306Z,100192.53
2023-04-22T01:39:45.497Z,100188.50
2023-04-22T01:42:48.430Z,100199.13
2023-04-22T01:45:51.166Z,100192.22
2023-04-22T01:48:54.044Z,100193.84
2023-04-22T01:52:01.495Z,100198.97
2023-04-22T01:55:04.399Z,100206.69
2023-04-22T01:58:07.317Z,100195.41
2023-04-22T02:01:12.641Z,100200.66
2023-04-22T02:04:15.660Z,100205.63
2023-04-22T02:07:18.519Z,100195.16
2023-04-22T02:10:21.449Z,100197.69
2023-04-22T02:13:24.060Z,100199.91
2023-04-22T02:16:26.864Z,100203.09
2023-04-22T02:19:29.751Z,100199.53
2023-04-22T02:22:33.096Z,100194.16
2023-04-22T02:25:36.983Z,100188.53
2023-04-22T02:28:39.647Z,100184.41
2023-04-22T02:31:42.469Z,100191.28
2023-04-22T02:34:45.102Z,100192.81
2023-04-22T02:37:47.872Z,100199.81
2023-04-22T02:40:53.405Z,100199.97
2023-04-22T02:43:56.213Z,100175.78
2023-04-22T02:46:59.023Z,100197.66
2023-04-22T02:50:01.861Z,100198.66
2023-04-22T02:53:04.551Z,100194.09
2023-04-22T02:56:08.762Z,100189.81
2023-04-22T02:59:11.429Z,100185.44
2023-04-22T03:02:14.367Z,100191.34
2023-04-22T03:05:20.242Z,100189.16
2023-04-22T03:08:23.099Z,100191.50
2023-04-22T03:11:25.902Z,100190.13
2023-04-22T03:14:29.107Z,100186.69
2023-04-22T03:17:31.963Z,100188.75
2023-04-22T03:20:35.705Z,100184.75
2023-04-22T03:23:41.310Z,100185.84
2023-04-22T03:26:43.989Z,100187.62
2023-04-22T03:29:52.158Z,100180.63
2023-04-22T03:32:58.325Z,100185.44
2023-04-22T03:36:01.257Z,100186.00
2023-04-22T03:39:04.388Z,100183.66
2023-04-22T03:42:07.292Z,100184.06
2023-04-22T03:45:10.354Z,100193.41
2023-04-22T03:48:13.248Z,100194.50
2023-04-22T03:51:15.992Z,100191.19
2023-04-22T03:54:20.384Z,100202.72
2023-04-22T03:57:25.995Z,100198.59
2023-04-22T04:00:28.827Z,100175.09
2023-04-22T04:03:31.703Z,100205.03
2023-04-22T04:06:34.591Z,100197.19
2023-04-22T04:09:37.834Z,100201.31
2023-04-22T04:12:40.748Z,100198.72
2023-04-22T04:15:43.815Z,100202.00
2023-04-22T04:18:46.768Z,100205.16
2023-04-22T04:21:49.716Z,100204.62
2023-04-22T04:24:52.666Z,100202.72
2023-04-22T04:27:55.619Z,100208.06
2023-04-22T04:30:59.040Z,100211.97
2023-04-22T04:34:01.943Z,100207.03
2023-04-22T04:37:04.695Z,100201.66
2023-04-22T04:40:10.499Z,100220.34
2023-04-22T04:43:14.556Z,100224.19
2023-04-22T04:46:17.444Z,100222.03
2023-04-22T04:49:21.030Z,100214.72
2023-04-22T04:52:23.748Z,100224.75
2023-04-22T04:55:26.396Z,100223.50
2023-04-22T04:58:29.458Z,100226.34
2023-04-22T05:01:32.208Z,100229.31
2023-04-22T05:04:36.293Z,100236.59
2023-04-22T05:07:39.097Z,100231.13
2023-04-22T05:10:42.872Z,100233.25
2023-04-22T05:13:45.621Z,100238.91
2023-04-22T05:16:48.426Z,100237.03
2023-04-22T05:19:51.194Z,100233.97
2023-04-22T05:22:53.908Z,100238.91
2023-04-22T05:25:57.602Z,100234.69
2023-04-22T05:29:00.390Z,100237.69
2023-04-22T05:32:03.264Z,100241.63
2023-04-22T05:35:06.500Z,100234.56
2023-04-22T05:38:09.385Z,100234.81
2023-04-22T05:41:12.105Z,100233.59
2023-04-22T05:44:15.513Z,100237.03
2023-04-22T05:47:18.224Z,100241.91
2023-04-22T05:50:22.766Z,100243.66
2023-04-22T05:53:26.137Z,100240.37
2023-04-22T05:56:28.810Z,100235.62
2023-04-22T05:59:31.492Z,100234.22
2023-04-22T06:02:34.592Z,100248.53
2023-04-22T06:05:37.487Z,100240.41
2023-04-22T06:08:47.506Z,100244.06
2023-04-22T06:11:50.247Z,100243.81
2023-04-22T06:14:52.941Z,100253.06
2023-04-22T06:17:55.830Z,100250.78
2023-04-22T06:20:58.663Z,100253.53
2023-04-22T06:24:01.698Z,100244.22
2023-04-22T06:27:04.425Z,100247.53
2023-04-22T06:30:07.922Z,100248.50
2023-04-22T06:33:10.730Z,100260.50
2023-04-22T06:36:14.381Z,100254.53
2023-04-22T06:39:18.246Z,100257.06
2023-04-22T06:42:21.018Z,100261.47
2023-04-22T06:45:23.832Z,100258.06
2023-04-22T06:48:27.675Z,100255.84
2023-04-22T06:51:31.232Z,100252.44
2023-04-22T06:54:33.883Z,100249.56
2023-04-22T06:57:36.581Z,100253.69
2023-04-22T07:00:39.398Z,100253.06
2023-04-22T07:03:42.195Z,100254.47
2023-04-22T07:06:45.232Z,100248.09
2023-04-22T07:09:47.944Z,100246.84
2023-04-22T07:12:50.648Z,100255.81
2023-04-22T07:15:53.546Z,100245.75
2023-04-22T07:18:56.302Z,100247.75
2023-04-22T07:21:58.928Z,100252.56
2023-04-22T07:25:01.747Z,100248.16
2023-04-22T07:28:04.574Z,100249.94
2023-04-22T07:31:07.645Z,100251.25
2023-04-22T07:34:10.982Z,100243.97
2023-04-22T07:37:13.805Z,100240.47
2023-04-22T07:40:16.630Z,100248.97
2023-04-22T07:43:20.032Z,100246.50
2023-04-22T07:46:22.861Z,100247.13
2023-04-22T07:49:25.829Z,100249.25
2023-04-22T07:52:30.137Z,100257.19
2023-04-22T07:55:33.131Z,100256.25
2023-04-22T07:58:35.903Z,100256.19
2023-04-22T08:01:38.834Z,100250.84
2023-04-22T08:04:41.777Z,100249.84
2023-04-22T08:07:44.579Z,100247.63
2023-04-22T08:10:47.331Z,100243.91
2023-04-22T08:13:49.998Z,100249.78
2023-04-22T08:16:53.087Z,100253.13
2023-04-22T08:19:55.921Z,100243.56
2023-04-22T08:23:00.713Z,100254.06
2023-04-22T08:26:03.942Z,100239.91
2023-04-22T08:29:07.247Z,100248.25
2023-04-22T08:32:10.051Z,100250.09
2023-04-22T08:35:13.137Z,100245.31
2023-04-22T08:38:15.933Z,100245.44
2023-04-22T08:41:19.440Z,100241.84
2023-04-22T08:44:23.062Z,100243.13
2023-04-22T08:47:26.730Z,100239.47
2023-04-22T08:50:30.377Z,100238.31
2023-04-22T08:53:33.447Z,100241.59
2023-04-22T08:56:37.357Z,100238.91
2023-04-22T08:59:40.666Z,100238.78
2023-04-22T09:02:45.312Z,100242.16
2023-04-22T09:05:50.214Z,100240.78
2023-04-22T09:08:53.856Z,100235.56
2023-04-22T09:11:56.547Z,100234.53
2023-04-22T09:14:59.287Z,100238.94
2023-04-22T09:18:04.774Z,100237.19
2023-04-22T09:21:07.502Z,100242.03
2023-04-22T09:24:11.654Z,100235.69
2023-04-22T09:27:14.331Z,100234.50
2023-04-22T09:30:19.231Z,100234.53
2023-04-22T09:33:25.947Z,100234.03
2023-04-22T09:36:29.662Z,100245.81
2023-04-22T09:39:32.407Z,100243.66
2023-04-22T09:42:55.213Z,100228.16
2023-04-22T09:45:59.998Z,100234.03
2023-04-22T09:49:02.779Z,100223.19
2023-04-22T09:52:06.350Z,100223.31
2023-04-22T09:55:09.883Z,100223.28
2023-04-22T09:58:14.887Z,100215.75
2023-04-22T10:01:17.703Z,100214.06
2023-04-22T10:04:25.775Z,100210.53
2023-04-22T10:07:31.860Z,100196.13
2023-04-22T10:10:35.164Z,100192.66
2023-04-22T10:13:38.224Z,100201.72
2023-04-22T10:16:43.722Z,100206.59
2023-04-22T10:19:48.045Z,100201.09
2023-04-22T10:22:53.000Z,100191.31
2023-04-22T10:28:59.352Z,100182.47
2023-04-22T10:32:11.917Z,100190.78
2023-04-22T10:35:15.321Z,100178.09
2023-04-22T10:38:18.039Z,100184.62
2023-04-22T10:41:24.859Z,100177.47
2023-04-22T10:44:29.345Z,100179.16
2023-04-22T10:47:32.515Z,100169.69
2023-04-22T10:50:39.914Z,100175.34
2023-04-22T10:53:46.576Z,100176.44
2023-04-22T10:57:15.327Z,100174.41
2023-04-22T11:00:35.397Z,100171.31
2023-04-22T11:03:47.956Z,100170.81
2023-04-22T11:07:18.475Z,100169.09
2023-04-22T11:10:44.718Z,100162.56
2023-04-22T11:13:50.940Z,100164.53
2023-04-22T11:16:54.300Z,100154.53
2023-04-22T11:19:58.276Z,100157.53
2023-04-22T11:23:03.142Z,100139.31
2023-04-22T11:26:07.523Z,100147.78
2023-04-22T11:29:10.226Z,100139.84
2023-04-22T11:32:12.887Z,100143.13
2023-04-22T11:35:21.267Z,100142.06
2023-04-22T11:38:23.943Z,100135.94
2023-04-22T11:41:28.090Z,100145.13
2023-04-22T11:44:30.837Z,100144.28
2023-04-22T11:47:34.791Z,100142.69
2023-04-22T11:50:39.973Z,100143.19
2023-04-22T11:53:51.007Z,100144.41
2023-04-22T11:56:53.621Z,100143.53
2023-04-22T11:59:59.671Z,100137.34
2023-04-22T12:03:08.781Z,100139.03
2023-04-22T12:06:11.896Z,100139.16
2023-04-22T12:09:14.596Z,100140.78
2023-04-22T12:12:27.704Z,100139.16
2023-04-22T12:15:38.689Z,100141.66
2023-04-22T12:18:51.818Z,100139.97
2023-04-22T12:21:58.264Z,100132.19
2023-04-22T12:25:01.507Z,100130.44
2023-04-22T12:28:04.227Z,100128.28
2023-04-22T12:31:07.501Z,100123.66
2023-04-22T12:34:10.250Z,100125.94
2023-04-22T12:37:16.546Z,100118.59
2023-04-22T12:40:19.487Z,100113.56
2023-04-22T12:43:22.286Z,100117.31
2023-04-22T12:46:28.036Z,100113.91
2023-04-22T12:49:33.630Z,100114.47
2023-04-22T12:52:36.489Z,100094.66
2023-04-22T12:55:39.937Z,100104.56
2023-04-22T12:58:46.285Z,100095.38
2023-04-22T13:01:49.106Z,100098.66
2023-04-22T13:04:52.031Z,100097.97
2023-04-22T13:08:06.490Z,100094.31
2023-04-22T13:11:09.818Z,100089.03
2023-04-22T13:14:12.529Z,100087.56
2023-04-22T13:17:16.585Z,100079.16
2023-04-22T13:20:22.956Z,100077.94
2023-04-22T13:23:26.102Z,100081.53
2023-04-22T13:26:29.068Z,100078.34
2023-04-22T13:29:32.009Z,100070.69
2023-04-22T13:32:38.885Z,100063.59
2023-04-22T13:35:41.890Z,100072.66
2023-04-22T13:38:44.879Z,100067.63
2023-04-22T13:41:47.710Z,100064.16
2023-04-22T13:44:50.841Z,100063.31
2023-04-22T13:47:54.178Z,100070.66
2023-04-22T13:51:00.456Z,100063.38
2023-04-22T13:54:07.350Z,100068.69
2023-04-22T13:57:10.272Z,100061.13
2023-04-22T14:00:13.451Z,100059.03
2023-04-22T14:03:16.723Z,100057.41
2023-04-22T14:06:19.930Z,100063.72
2023-04-22T14:09:22.665Z,100063.41
2023-04-22T14:12:25.399Z,100048.03
2023-04-22T14:15:28.275Z,100052.84
2023-04-22T14:18:31.617Z,100054.37
2023-04-22T14:21:34.364Z,100052.50
2023-04-22T14:24:37.315Z,100047.97
2023-04-22T14:27:40.055Z,100047.16
2023-04-22T14:30:43.569Z,100045.22
2023-04-22T14:33:46.397Z,100047.53
2023-04-22T14:36:49.081Z,100048.53
2023-04-22T14:39:52.161Z,100047.03
2023-04-22T14:42:55.939Z,100046.00
2023-04-22T14:45:58.699Z,100045.56
2023-04-22T14:49:01.722Z,100037.19
2023-04-22T14:52:05.360Z,100042.28
2023-04-22T14:55:19.498Z,100030.03
2023-04-22T14:58:27.311Z,100027.41
2023-04-22T15:01:30.123Z,100021.78
2023-04-22T15:04:33.331Z,100016.59
2023-04-22T15:07:36.229Z,100024.50
2023-04-22T15:10:41.835Z,100026.69
2023-04-22T15:13:44.561Z,100014.97
2023-04-22T15:16:47.390Z,100020.41
2023-04-22T15:19:52.361Z,100013.97
2023-04-22T15:22:55.182Z,100015.62
2023-04-22T15:25:57.957Z,100016.31
2023-04-22T15:29:03.984Z,100021.59
2023-04-22T15:32:06.908Z,100012.09
2023-04-22T15:35:10.709Z,100010.66
2023-04-22T15:38:13.381Z,100015.25
2023-04-22T15:41:16.390Z,100010.69
2023-04-22T15:44:19.110Z,100010.28
2023-04-22T15:47:21.864Z,100017.34
2023-04-22T15:50:25.211Z,100004.59
2023-04-22T15:53:27.895Z,100017.50
2023-04-22T15:56:30.712Z,100007.38
2023-04-22T15:59:33.320Z,100002.91
2023-04-22T16:02:36.836Z,100002.28
2023-04-22T16:05:39.703Z,100013.34
2023-04-22T16:08:42.373Z,100004.53
2023-04-22T16:11:45.102Z,100007.34
2023-04-22T16:14:48.173Z,100005.97
2023-04-22T16:17:51.063Z,99997.50
2023-04-22T16:20:54.428Z,99998.03
2023-04-22T16:24:00.939Z,100005.34
2023-04-22T16:27:03.801Z,100003.13
2023-04-22T16:30:11.061Z,100002.31
2023-04-22T16:33:15.586Z,99996.75
2023-04-22T16:36:18.350Z,99994.94
2023-04-22T16:39:21.201Z,99986.53
2023-04-22T16:42:23.930Z,99988.94
2023-04-22T16:45:26.561Z,99989.44
2023-04-22T16:48:32.266Z,99985.91
2023-04-22T16:51:37.642Z,99984.47
2023-04-22T16:54:42.613Z,99987.72
2023-04-22T16:57:47.831Z,99982.53
2023-04-22T17:00:50.722Z,99980.19
2023-04-22T17:03:53.589Z,99978.28
2023-04-22T17:06:56.509Z,99988.03
2023-04-22T17:09:59.297Z,99980.16
2023-04-22T17:13:03.232Z,99985.94
2023-04-22T17:16:08.907Z,99982.62
2023-04-22T17:19:11.810Z,99986.41
2023-04-22T17:22:14.481Z,99985.91
2023-04-22T17:25:17.044Z,99977.25
2023-04-22T17:28:19.794Z,99987.56
2023-04-22T17:31:23.640Z,99988.50
2023-04-22T17:34:27.287Z,99981.09
2023-04-22T17:37:29.916Z,99981.81
2023-04-22T17:40:33.859Z,99985.31
2023-04-22T17:43:36.626Z,99986.75
2023-04-22T17:46:39.559Z,99996.84
2023-04-22T17:49:42.894Z,99988.09
2023-04-22T17:52:46.271Z,99997.34
2023-04-22T17:55:48.979Z,99997.84
2023-04-22T17:58:51.884Z,100002.75
2023-04-22T18:01:54.612Z,100005.59
2023-04-22T18:04:58.359Z,100000.69
2023-04-22T18:08:02.926Z,100005.31
2023-04-22T18:11:06.186Z,100008.84
2023-04-22T18:14:12.035Z,100011.00
2023-04-22T18:17:15.137Z,100014.19
2023-04-22T18:20:19.906Z,100021.53
2023-04-22T18:23:24.911Z,100021.56
2023-04-22T18:26:27.880Z,100023.22
2023-04-22T18:29:30.747Z,100026.28
2023-04-22T18:32:34.898Z,100023.63
2023-04-22T18:35:42.969Z,100025.69
2023-04-22T18:38:46.156Z,100026.47
2023-04-22T18:41:49.938Z,100027.06
2023-04-22T18:44:53.355Z,100029.88
2023-04-22T18:47:56.959Z,100034.09
2023-04-22T18:50:59.827Z,100033.03
2023-04-22T18:54:03.356Z,100033.59
2023-04-22T18:57:06.948Z,100034.75
2023-04-22T19:00:11.637Z,100035.12
2023-04-22T19:03:14.872Z,100030.00
2023-04-22T19:06:18.002Z,100040.34
2023-04-22T19:09:23.215Z,100034.72
2023-04-22T19:12:27.170Z,100038.47
2023-04-22T19:15:29.948Z,100042.47
2023-04-22T19:18:33.100Z,100043.00
2023-04-22T19:21:36.022Z,100038.69
2023-04-22T19:24:40.038Z,100041.97
2023-04-22T19:27:42.806Z,100039.66
2023-04-22T19:30:46.411Z,100033.50
2023-04-22T19:33:53.152Z,100041.50
2023-04-22T19:36:56.028Z,100041.06
2023-04-22T19:39:58.959Z,100031.00
2023-04-22T19:43:04.722Z,100037.25
2023-04-22T19:46:09.882Z,100033.34
2023-04-22T19:49:14.752Z,100034.09
2023-04-22T19:52:18.749Z,100032.63
2023-04-22T19:55:22.088Z,100029.28
2023-04-22T19:58:27.723Z,100031.59
2023-04-22T20:01:32.282Z,100036.16
2023-04-22T20:04:35.997Z,100033.97
2023-04-22T20:07:44.774Z,100033.72
2023-04-22T20:10:49.865Z,100034.00
2023-04-22T20:13:53.462Z,100036.66
2023-04-22T20:16:56.284Z,100040.06
2023-04-22T20:20:02.057Z,100041.81
2023-04-22T20:23:10.454Z,100040.03
2023-04-22T20:26:13.592Z,100035.47
2023-04-22T20:29:20.118Z,100042.03
2023-04-22T20:32:22.938Z,100043.69
2023-04-22T20:35:25.899Z,100033.94
2023-04-22T20:38:31.057Z,100038.56
2023-04-22T20:41:40.669Z,100037.47
2023-04-22T20:44:43.600Z,100039.53
2023-04-22T20:47:46.377Z,100037.13
2023-04-22T20:50:49.212Z,100041.16
2023-04-22T20:53:52.679Z,100034.41
2023-04-22T20:56:55.415Z,100028.03
2023-04-22T20:59:58.402Z,100022.34
2023-04-22T21:03:01.919Z,100025.03
2023-04-22T21:06:05.815Z,100031.31
2023-04-22T21:09:10.795Z,100030.69
2023-04-22T21:12:15.080Z,100029.84
2023-04-22T21:15:18.192Z,100028.25
2023-04-22T21:18:21.906Z,100032.56
2023-04-22T21:21:28.469Z,100029.16
2023-04-22T21:24:37.865Z,100034.94
2023-04-22T21:27:41.101Z,100040.72
2023-04-22T21:30:44.613Z,100030.53
2023-04-22T21:33:47.439Z,100034.81
2023-04-22T21:36:50.302Z,100035.81
2023-04-22T21:39:53.134Z,100049.00
2023-04-22T21:42:55.859Z,100041.59
2023-04-22T21:45:58.567Z,100036.19
2023-04-22T21:49:01.345Z,100044.75
2023-04-22T21:52:04.148Z,100046.56
2023-04-22T21:55:07.053Z,100045.09
2023-04-22T21:58:09.779Z,100047.53
2023-04-22T22:01:12.522Z,100047.22
2023-04-22T22:04:16.439Z,100043.28
2023-04-22T22:07:19.929Z,100041.63
2023-04-22T22:10:23.137Z,100050.84
2023-04-22T22:13:26.427Z,100046.56
2023-04-22T22:16:29.169Z,100048.06
2023-04-22T22:19:32.168Z,100048.56
2023-04-22T22:22:34.949Z,100041.81
2023-04-22T22:26:15.136Z,100048.22
2023-04-22T22:29:18.105Z,100050.19
2023-04-22T22:32:21.343Z,100048.06
2023-04-22T22:35:24.117Z,100056.09
2023-04-22T22:38:26.967Z,100053.13
2023-04-22T22:41:30.058Z,100059.84
2023-04-22T22:44:32.680Z,100049.19
2023-04-22T22:47:35.664Z,100051.47
2023-04-22T22:50:39.073Z,100053.09
2023-04-22T22:53:42.024Z,100058.84
2023-04-22T22:56:44.701Z,100047.84
2023-04-22T22:59:47.423Z,100059.66
2023-04-22T23:10:10.240Z,100057.03
2023-04-22T23:13:13.053Z,100052.56
2023-04-22T23:16:15.922Z,100057.28
2023-04-22T23:19:19.273Z,100052.72
2023-04-22T23:22:22.501Z,100043.84
2023-04-22T23:25:25.672Z,100055.97
2023-04-22T23:28:28.636Z,100051.53
2023-04-22T23:31:32.781Z,100044.97
2023-04-22T23:34:35.918Z,100043.66
2023-04-22T23:37:42.553Z,100045.28
2023-04-22T23:40:45.874Z,100044.78
2023-04-22T23:43:48.965Z,100034.44
2023-04-22T23:46:51.897Z,100038.19
2023-04-22T23:49:54.632Z,100042.66
2023-04-22T23:52:57.736Z,100038.19
2023-04-22T23:56:01.118Z,100038.88
